WetterOnline ( https://www.wetteronline.de )

Wetter aktuell Kämpfelbach

Aktuelles Wetter: Mühlacker (245m)

6-stündlich | Neueste Meldungen
Ortszeit Temperatur Wetter
Mi, 22.01. 13:00 -1.7° C bedeckt
Mi, 22.01. 7:00 -5.3° C bedeckt
Mi, 22.01. 1:00 -3.3° C leicht bewölkt
Di, 21.01. 19:00 -3.5° C wolkenlos
Di, 21.01. 13:00 1.6° C wolkenlos
Di, 21.01. 7:00 -5.3° C wolkenlos
Di, 21.01. 1:00 -2.0° C wolkenlos
Mo, 20.01. 19:00 2.4° C wolkenlos
Ortszeit Temperatur Wetter
Mi, 22.01. 13:00 -1.7° C bedeckt
Mi, 22.01. 12:30 -2.0° C bedeckt
Mi, 22.01. 12:20 -2.0° C bedeckt
Mi, 22.01. 12:10 -2.0° C bedeckt
Mi, 22.01. 12:00 -2.0° C bedeckt
Mi, 22.01. 11:50 -2.0° C bedeckt
Mi, 22.01. 11:30 -2.2° C bedeckt
Mi, 22.01. 11:00 -2.2° C bedeckt
Mi, 22.01. 10:30 -2.4° C bedeckt
Mi, 22.01. 10:00 -2.7° C bedeckt
Mi, 22.01. 9:30 -2.9° C bedeckt
Ortszeit Relative Feuchte Sichtweite
Mi, 22.01. 13:00 89% 3.8 km
Mi, 22.01. 7:00 97% 3.3 km
Mi, 22.01. 1:00 97% 3.0 km
Di, 21.01. 19:00 96% 4.6 km
Di, 21.01. 13:00 77% 7 km
Di, 21.01. 7:00 98% 6 km
Di, 21.01. 1:00 94% 14 km
Mo, 20.01. 19:00 75% 40 km
Ortszeit Relative Feuchte Sichtweite
Mi, 22.01. 13:00 89% 3.8 km
Mi, 22.01. 12:30 88% 3.9 km
Mi, 22.01. 12:20 88% -
Mi, 22.01. 12:10 89% -
Mi, 22.01. 12:00 91% 4.0 km
Mi, 22.01. 11:50 91% -
Mi, 22.01. 11:30 91% 3.2 km
Mi, 22.01. 11:00 91% 3.4 km
Mi, 22.01. 10:30 94% 3.2 km
Mi, 22.01. 10:00 93% 3.2 km
Mi, 22.01. 9:30 94% 2.9 km
Ortszeit Niederschlagsmenge Niederschlagsart
Mi, 22.01. 13:00 0.0 l/m2 in 6 Std. -
Mi, 22.01. 7:00 0.0 l/m2 in 12 Std. -
Mi, 22.01. 1:00 0.0 l/m2 in 6 Std. -
Di, 21.01. 19:00 0.0 l/m2 in 12 Std. -
Di, 21.01. 13:00 0.0 l/m2 in 6 Std. -
Di, 21.01. 7:00 0.0 l/m2 in 12 Std. -
Di, 21.01. 1:00 0.0 l/m2 in 6 Std. -
Mo, 20.01. 19:00 0.0 l/m2 in 12 Std. -
Ortszeit Niederschlagsmenge Niederschlagsart
Mi, 22.01. 13:00 0.0 l/m2 in 1 Std. -
Mi, 22.01. 12:30 0.0 l/m2 in 1 Std. -
Mi, 22.01. 12:20 keine Meldung -
Mi, 22.01. 12:10 keine Meldung -
Mi, 22.01. 12:00 0.0 l/m2 in 1 Std. -
Mi, 22.01. 11:50 keine Meldung -
Mi, 22.01. 11:30 0.0 l/m2 in 1 Std. -
Mi, 22.01. 11:00 0.0 l/m2 in 1 Std. -
Mi, 22.01. 10:30 0.0 l/m2 in 1 Std. -
Mi, 22.01. 10:00 0.0 l/m2 in 1 Std. -
Mi, 22.01. 9:30 0.0 l/m2 in 1 Std. -
Ortszeit Stärke Spitze Richtung
km/h Bft. km/h Grad Sektor
Mi, 22.01. 13:00 7 2 14 60° NO
Mi, 22.01. 7:00 0 0 11 - -
Mi, 22.01. 1:00 7 2 14 110° O
Di, 21.01. 19:00 0 0 18 - -
Di, 21.01. 13:00 9 2 19 120° SO
Di, 21.01. 7:00 4 1 11 110° O
Di, 21.01. 1:00 0 0 25 - -
Mo, 20.01. 19:00 11 2 25 60° NO
Ortszeit Stärke Spitze Richtung
km/h Bft. km/h Grad Sektor
Mi, 22.01. 13:00 7 2 11 60° NO
Mi, 22.01. 12:30 7 2 11 120° SO
Mi, 22.01. 12:20 7 2 - 120° SO
Mi, 22.01. 12:10 7 2 - 120° SO
Mi, 22.01. 12:00 7 2 14 140° SO
Mi, 22.01. 11:50 7 2 - 140° SO
Mi, 22.01. 11:30 7 2 14 150° SO
Mi, 22.01. 11:00 7 2 15 130° SO
Mi, 22.01. 10:30 6 1 15 100° O
Mi, 22.01. 10:00 7 2 14 80° O
Mi, 22.01. 9:30 6 1 11 100° O
Ortszeit Untergrenze Bedeckung Gattung
total tief tief mittel hoch
Mi, 22.01. 13:00 240 m 8/8 8/8 - - -
Mi, 22.01. 7:00 270 m 8/8 8/8 - - -
Mi, 22.01. 1:00 360 m 4/8 4/8 - - -
Di, 21.01. 19:00 - 0/8 0/8 - - -
Di, 21.01. 13:00 - 0/8 0/8 - - -
Di, 21.01. 7:00 - 0/8 0/8 - - -
Di, 21.01. 1:00 - 0/8 0/8 - - -
Mo, 20.01. 19:00 - 0/8 0/8 - - -
Ortszeit Bedeckungsgrad in Achtel und Wolkenuntergrenze
Mi, 22.01. 13:00 8(240m)
Mi, 22.01. 12:30 8(210m)
Mi, 22.01. 12:20 8(210m)
Mi, 22.01. 12:10 8(210m)
Mi, 22.01. 12:00 8(210m)
Mi, 22.01. 11:50 8(210m)
Mi, 22.01. 11:30 8(210m)
Mi, 22.01. 11:00 8(210m)
Mi, 22.01. 10:30 8(180m)
Mi, 22.01. 10:00 8(180m)
Mi, 22.01. 9:30 8(150m)
Ortszeit Luftdruck NN (hPa) Tendenz (hPa in 3 Std.)
Mi, 22.01. 13:00 1037 - 0,6
Mi, 22.01. 7:00 1038 + 0,5
Mi, 22.01. 1:00 1039 - 0,9
Di, 21.01. 19:00 1040 - 0,9
Di, 21.01. 13:00 1042 - 0,9
Di, 21.01. 7:00 1044 - 0,4
Di, 21.01. 1:00 1045 - 0,3
Mo, 20.01. 19:00 1045 - 0,1
Ortszeit Luftdruck NN (hPa) Tendenz (hPa in 3 Std.)
Mi, 22.01. 13:00 1037 - 0,6
Mi, 22.01. 12:30 1037 - 0,7
Mi, 22.01. 12:20 1037 keine Meldung
Mi, 22.01. 12:10 1037 keine Meldung
Mi, 22.01. 12:00 1037 - 0,6
Mi, 22.01. 11:50 1037 keine Meldung
Mi, 22.01. 11:30 1037 + 0,3
Mi, 22.01. 11:00 1038 + 0,2
Mi, 22.01. 10:30 1038 + 0,3
Mi, 22.01. 10:00 1038 + 0,2
Mi, 22.01. 9:30 1038 + 0,4
Ortszeit Schneehöhe (cm)
Mi, 22.01. 13:00 0
Mi, 22.01. 7:00 0
Mi, 22.01. 1:00 0
Di, 21.01. 19:00 0
Di, 21.01. 13:00 0
Di, 21.01. 7:00 0
Di, 21.01. 1:00 0
Mo, 20.01. 19:00 0
Ortszeit Schneehöhe (cm)
Mi, 22.01. 13:00 0
Mi, 22.01. 12:30 0
Mi, 22.01. 12:20 0
Mi, 22.01. 12:10 0
Mi, 22.01. 12:00 0
Mi, 22.01. 11:50 0
Mi, 22.01. 11:30 0
Mi, 22.01. 11:00 0
Mi, 22.01. 10:30 0
Mi, 22.01. 10:00 0
Mi, 22.01. 9:30 0
Link zu dieser Seite / Seite empfehlen

Das Wetter in ...